Terminal Aerodrome Forecast
Issued by NWS

Home | Current Version | Previous Version | Text Only | Print | Product List | Glossary On
Versions: 1 2 3 4 5 6 7 8 9 10 11 12 13 14 15 16 17 18 19 20 21
000
FTUS46 KSEW 111700
TAFHQM
TAF
KHQM 111720Z 1118/1218 VRB03KT P6SM SKC
     FM120300 25008KT 5SM BR OVC005
     FM121000 25005KT 3SM BR OVC003
     FM121700 VRB03KT P6SM SKC=

USA.gov is the U.S. government's official web portal to all federal, state and local government web resources and services.